sensor_id;sensor_type;location;lat;lon;timestamp;pressure;altitude;pressure_sealevel;temperature;humidity
15694;BME280;7947;48.834;9.132;2023-04-10T00:02:52;98794.97;;;7.39;64.37
15694;BME280;7947;48.834;9.132;2023-04-10T00:05:55;98795.69;;;7.34;65.50
15694;BME280;7947;48.834;9.132;2023-04-10T00:08:58;98793.94;;;7.28;65.24
15694;BME280;7947;48.834;9.132;2023-04-10T00:12:00;98794.34;;;7.20;65.08
15694;BME280;7947;48.834;9.132;2023-04-10T00:15:07;98791.00;;;7.13;65.89
15694;BME280;7947;48.834;9.132;2023-04-10T00:18:10;98796.94;;;7.03;66.17
15694;BME280;7947;48.834;9.132;2023-04-10T00:21:13;98801.00;;;7.06;66.31
15694;BME280;7947;48.834;9.132;2023-04-10T00:24:16;98797.59;;;7.10;66.00
15694;BME280;7947;48.834;9.132;2023-04-10T00:27:18;98800.41;;;7.04;65.61
15694;BME280;7947;48.834;9.132;2023-04-10T00:30:22;98797.63;;;6.99;65.72
15694;BME280;7947;48.834;9.132;2023-04-10T00:33:25;98791.75;;;6.85;65.64
15694;BME280;7947;48.834;9.132;2023-04-10T00:36:28;98787.81;;;6.76;66.21
15694;BME280;7947;48.834;9.132;2023-04-10T00:39:31;98785.63;;;6.73;66.39
15694;BME280;7947;48.834;9.132;2023-04-10T00:42:34;98786.56;;;6.67;65.98
15694;BME280;7947;48.834;9.132;2023-04-10T00:45:39;98784.59;;;6.51;67.06
15694;BME280;7947;48.834;9.132;2023-04-10T00:48:42;98777.09;;;6.48;67.02
15694;BME280;7947;48.834;9.132;2023-04-10T00:51:45;98779.50;;;6.50;67.92
15694;BME280;7947;48.834;9.132;2023-04-10T00:54:49;98780.66;;;6.42;67.87
15694;BME280;7947;48.834;9.132;2023-04-10T00:57:53;98774.19;;;6.38;67.72
15694;BME280;7947;48.834;9.132;2023-04-10T01:00:58;98785.19;;;6.42;67.37
15694;BME280;7947;48.834;9.132;2023-04-10T01:04:01;98786.00;;;6.30;67.23
15694;BME280;7947;48.834;9.132;2023-04-10T01:07:09;98774.41;;;6.25;67.65
15694;BME280;7947;48.834;9.132;2023-04-10T01:10:16;98780.91;;;6.29;67.69
15694;BME280;7947;48.834;9.132;2023-04-10T01:13:22;98791.66;;;6.22;67.77
15694;BME280;7947;48.834;9.132;2023-04-10T01:16:32;98786.09;;;6.12;67.84
15694;BME280;7947;48.834;9.132;2023-04-10T01:19:56;98788.41;;;6.09;68.83
15694;BME280;7947;48.834;9.132;2023-04-10T01:23:18;98777.06;;;6.02;68.32
15694;BME280;7947;48.834;9.132;2023-04-10T01:26:35;98791.03;;;5.97;68.44
15694;BME280;7947;48.834;9.132;2023-04-10T01:29:44;98793.81;;;6.02;68.13
15694;BME280;7947;48.834;9.132;2023-04-10T01:32:53;98785.56;;;5.92;68.79
15694;BME280;7947;48.834;9.132;2023-04-10T01:36:00;98786.88;;;5.90;69.17
15694;BME280;7947;48.834;9.132;2023-04-10T01:39:05;98789.47;;;5.78;69.74
15694;BME280;7947;48.834;9.132;2023-04-10T01:42:10;98780.91;;;5.76;70.25
15694;BME280;7947;48.834;9.132;2023-04-10T01:45:20;98785.13;;;5.66;70.32
15694;BME280;7947;48.834;9.132;2023-04-10T01:48:23;98773.78;;;5.59;70.65
15694;BME280;7947;48.834;9.132;2023-04-10T01:51:29;98768.59;;;5.64;70.35
15694;BME280;7947;48.834;9.132;2023-04-10T01:54:32;98773.31;;;5.62;70.32
15694;BME280;7947;48.834;9.132;2023-04-10T01:57:35;98769.19;;;5.66;70.44
15694;BME280;7947;48.834;9.132;2023-04-10T02:00:40;98768.81;;;5.62;70.14
15694;BME280;7947;48.834;9.132;2023-04-10T02:03:43;98771.13;;;5.59;69.66
15694;BME280;7947;48.834;9.132;2023-04-10T02:06:50;98764.88;;;5.53;70.30
15694;BME280;7947;48.834;9.132;2023-04-10T02:10:03;98760.81;;;5.50;70.13
15694;BME280;7947;48.834;9.132;2023-04-10T02:13:06;98764.13;;;5.46;70.17
15694;BME280;7947;48.834;9.132;2023-04-10T02:16:13;98764.91;;;5.35;71.29
15694;BME280;7947;48.834;9.132;2023-04-10T02:19:18;98766.09;;;5.39;70.13
15694;BME280;7947;48.834;9.132;2023-04-10T02:22:22;98774.00;;;5.45;70.75
15694;BME280;7947;48.834;9.132;2023-04-10T02:25:25;98771.75;;;5.42;70.64
15694;BME280;7947;48.834;9.132;2023-04-10T02:28:28;98769.81;;;5.38;70.06
15694;BME280;7947;48.834;9.132;2023-04-10T02:31:32;98770.59;;;5.38;70.41
15694;BME280;7947;48.834;9.132;2023-04-10T02:34:35;98767.94;;;5.38;71.33
15694;BME280;7947;48.834;9.132;2023-04-10T02:37:38;98762.03;;;5.36;72.14
15694;BME280;7947;48.834;9.132;2023-04-10T02:40:40;98773.13;;;5.33;71.97
15694;BME280;7947;48.834;9.132;2023-04-10T02:43:43;98775.78;;;5.33;71.59
15694;BME280;7947;48.834;9.132;2023-04-10T02:46:47;98766.03;;;5.27;70.78
15694;BME280;7947;48.834;9.132;2023-04-10T02:49:50;98768.94;;;5.26;71.24
15694;BME280;7947;48.834;9.132;2023-04-10T02:52:52;98778.97;;;5.24;70.99
15694;BME280;7947;48.834;9.132;2023-04-10T02:55:55;98777.34;;;5.23;71.47
15694;BME280;7947;48.834;9.132;2023-04-10T02:58:58;98785.91;;;5.25;71.55
15694;BME280;7947;48.834;9.132;2023-04-10T03:02:03;98785.56;;;5.21;71.70
15694;BME280;7947;48.834;9.132;2023-04-10T03:05:06;98781.19;;;5.27;70.43
15694;BME280;7947;48.834;9.132;2023-04-10T03:08:09;98772.97;;;5.28;70.95
15694;BME280;7947;48.834;9.132;2023-04-10T03:11:12;98773.06;;;5.22;71.50
15694;BME280;7947;48.834;9.132;2023-04-10T03:14:14;98767.16;;;5.20;72.68
15694;BME280;7947;48.834;9.132;2023-04-10T03:17:18;98771.31;;;5.16;71.46
15694;BME280;7947;48.834;9.132;2023-04-10T03:20:21;98764.47;;;5.08;71.63
15694;BME280;7947;48.834;9.132;2023-04-10T03:23:23;98757.97;;;5.04;71.43
15694;BME280;7947;48.834;9.132;2023-04-10T03:26:26;98758.97;;;5.03;71.65
15694;BME280;7947;48.834;9.132;2023-04-10T03:29:29;98757.25;;;4.97;71.79
15694;BME280;7947;48.834;9.132;2023-04-10T03:32:33;98750.66;;;5.00;72.66
15694;BME280;7947;48.834;9.132;2023-04-10T03:35:36;98753.53;;;4.98;71.71
15694;BME280;7947;48.834;9.132;2023-04-10T03:38:39;98747.22;;;4.99;72.23
15694;BME280;7947;48.834;9.132;2023-04-10T03:41:41;98741.88;;;4.99;72.55
15694;BME280;7947;48.834;9.132;2023-04-10T03:44:44;98745.22;;;4.95;71.98
15694;BME280;7947;48.834;9.132;2023-04-10T03:47:48;98741.50;;;4.96;71.96
15694;BME280;7947;48.834;9.132;2023-04-10T03:50:51;98749.56;;;4.89;72.57
15694;BME280;7947;48.834;9.132;2023-04-10T03:53:54;98739.19;;;4.88;72.78
15694;BME280;7947;48.834;9.132;2023-04-10T03:56:56;98744.69;;;4.86;73.23
15694;BME280;7947;48.834;9.132;2023-04-10T03:59:59;98737.53;;;4.87;73.12
15694;BME280;7947;48.834;9.132;2023-04-10T04:03:04;98739.66;;;4.78;72.61
15694;BME280;7947;48.834;9.132;2023-04-10T04:06:07;98741.09;;;4.81;73.45
15694;BME280;7947;48.834;9.132;2023-04-10T04:09:10;98735.34;;;4.84;72.90
15694;BME280;7947;48.834;9.132;2023-04-10T04:12:12;98727.13;;;4.85;72.10
15694;BME280;7947;48.834;9.132;2023-04-10T04:15:15;98737.41;;;4.82;72.24
15694;BME280;7947;48.834;9.132;2023-04-10T04:18:19;98726.63;;;4.77;73.56
15694;BME280;7947;48.834;9.132;2023-04-10T04:21:22;98723.31;;;4.81;73.82
15694;BME280;7947;48.834;9.132;2023-04-10T04:24:24;98723.00;;;4.71;74.17
15694;BME280;7947;48.834;9.132;2023-04-10T04:27:27;98727.16;;;4.67;74.50
15694;BME280;7947;48.834;9.132;2023-04-10T04:30:30;98729.50;;;4.75;73.89
15694;BME280;7947;48.834;9.132;2023-04-10T04:33:34;98723.38;;;4.75;74.16
15694;BME280;7947;48.834;9.132;2023-04-10T04:36:36;98732.38;;;4.74;74.89
15694;BME280;7947;48.834;9.132;2023-04-10T04:39:39;98729.50;;;4.75;74.68
15694;BME280;7947;48.834;9.132;2023-04-10T04:42:42;98736.75;;;4.68;74.91
15694;BME280;7947;48.834;9.132;2023-04-10T04:45:44;98731.22;;;4.70;74.93
15694;BME280;7947;48.834;9.132;2023-04-10T04:48:49;98723.38;;;4.75;75.05
15694;BME280;7947;48.834;9.132;2023-04-10T04:51:51;98721.91;;;4.79;75.35
15694;BME280;7947;48.834;9.132;2023-04-10T04:54:54;98720.66;;;4.81;74.57
15694;BME280;7947;48.834;9.132;2023-04-10T04:57:56;98726.31;;;4.85;74.91
15694;BME280;7947;48.834;9.132;2023-04-10T05:00:59;98722.69;;;4.97;74.69
15694;BME280;7947;48.834;9.132;2023-04-10T05:04:03;98726.72;;;5.00;74.51
15694;BME280;7947;48.834;9.132;2023-04-10T05:07:06;98734.16;;;5.09;74.59
15694;BME280;7947;48.834;9.132;2023-04-10T05:10:09;98728.44;;;5.12;73.93
15694;BME280;7947;48.834;9.132;2023-04-10T05:13:11;98727.72;;;5.17;73.99
15694;BME280;7947;48.834;9.132;2023-04-10T05:16:16;98729.41;;;5.29;75.16
15694;BME280;7947;48.834;9.132;2023-04-10T05:19:20;98724.59;;;5.38;75.36
15694;BME280;7947;48.834;9.132;2023-04-10T05:22:22;98728.63;;;5.40;74.29
15694;BME280;7947;48.834;9.132;2023-04-10T05:25:25;98728.78;;;5.45;75.25
15694;BME280;7947;48.834;9.132;2023-04-10T05:28:28;98739.22;;;5.59;75.43
15694;BME280;7947;48.834;9.132;2023-04-10T05:31:31;98737.16;;;5.72;75.64
15694;BME280;7947;48.834;9.132;2023-04-10T05:34:35;98734.75;;;5.82;74.92
15694;BME280;7947;48.834;9.132;2023-04-10T05:37:39;98732.00;;;5.89;74.87
15694;BME280;7947;48.834;9.132;2023-04-10T05:40:43;98726.34;;;5.97;75.58
15694;BME280;7947;48.834;9.132;2023-04-10T05:43:47;98725.66;;;6.01;75.51
15694;BME280;7947;48.834;9.132;2023-04-10T05:46:50;98729.81;;;5.97;75.47
15694;BME280;7947;48.834;9.132;2023-04-10T05:49:54;98732.81;;;5.89;75.28
15694;BME280;7947;48.834;9.132;2023-04-10T05:52:57;98733.41;;;5.91;75.42
15694;BME280;7947;48.834;9.132;2023-04-10T05:55:59;98730.63;;;5.86;75.62
15694;BME280;7947;48.834;9.132;2023-04-10T05:59:02;98736.06;;;6.03;75.30
15694;BME280;7947;48.834;9.132;2023-04-10T06:02:05;98731.69;;;6.20;75.38
15694;BME280;7947;48.834;9.132;2023-04-10T06:05:10;98737.72;;;6.38;74.76
15694;BME280;7947;48.834;9.132;2023-04-10T06:08:12;98743.69;;;6.57;74.51
15694;BME280;7947;48.834;9.132;2023-04-10T06:11:15;98741.94;;;6.74;74.69
15694;BME280;7947;48.834;9.132;2023-04-10T06:14:19;98741.88;;;6.97;73.56
15694;BME280;7947;48.834;9.132;2023-04-10T06:17:21;98739.63;;;7.17;72.70
15694;BME280;7947;48.834;9.132;2023-04-10T06:20:27;98724.13;;;7.31;72.97
15694;BME280;7947;48.834;9.132;2023-04-10T06:23:30;98734.50;;;7.44;73.42
15694;BME280;7947;48.834;9.132;2023-04-10T06:26:33;98737.94;;;7.56;73.37
15694;BME280;7947;48.834;9.132;2023-04-10T06:29:35;98735.44;;;7.66;73.43
15694;BME280;7947;48.834;9.132;2023-04-10T06:32:38;98726.88;;;7.81;73.28
15694;BME280;7947;48.834;9.132;2023-04-10T06:35:42;98730.44;;;8.03;71.83
15694;BME280;7947;48.834;9.132;2023-04-10T06:38:45;98728.50;;;8.32;69.24
15694;BME280;7947;48.834;9.132;2023-04-10T06:41:48;98726.50;;;8.60;68.32
15694;BME280;7947;48.834;9.132;2023-04-10T06:44:51;98724.03;;;8.97;67.58
15694;BME280;7947;48.834;9.132;2023-04-10T06:47:54;98721.03;;;9.42;65.88
15694;BME280;7947;48.834;9.132;2023-04-10T06:50:58;98721.59;;;10.02;64.11
15694;BME280;7947;48.834;9.132;2023-04-10T06:54:02;98720.19;;;10.73;61.18
15694;BME280;7947;48.834;9.132;2023-04-10T06:57:05;98715.38;;;11.57;58.96
15694;BME280;7947;48.834;9.132;2023-04-10T07:00:09;98708.56;;;12.80;55.72
15694;BME280;7947;48.834;9.132;2023-04-10T07:03:12;98698.00;;;14.20;50.82
15694;BME280;7947;48.834;9.132;2023-04-10T07:06:16;98695.22;;;15.24;47.96
15694;BME280;7947;48.834;9.132;2023-04-10T07:09:19;98681.66;;;15.67;46.28
15694;BME280;7947;48.834;9.132;2023-04-10T07:12:22;98684.75;;;15.42;45.43
15694;BME280;7947;48.834;9.132;2023-04-10T07:15:24;98687.53;;;14.71;45.85
15694;BME280;7947;48.834;9.132;2023-04-10T07:18:27;98692.69;;;14.10;46.79
15694;BME280;7947;48.834;9.132;2023-04-10T07:21:31;98688.56;;;13.50;48.29
15694;BME280;7947;48.834;9.132;2023-04-10T07:24:34;98682.91;;;12.98;49.18
15694;BME280;7947;48.834;9.132;2023-04-10T07:27:37;98692.19;;;12.72;49.35
15694;BME280;7947;48.834;9.132;2023-04-10T07:30:40;98691.38;;;12.71;50.10
15694;BME280;7947;48.834;9.132;2023-04-10T07:33:43;98699.16;;;12.73;49.80
15694;BME280;7947;48.834;9.132;2023-04-10T07:36:48;98695.34;;;12.89;49.25
15694;BME280;7947;48.834;9.132;2023-04-10T07:39:51;98692.34;;;13.00;49.65
15694;BME280;7947;48.834;9.132;2023-04-10T07:42:54;98688.00;;;12.99;47.46
15694;BME280;7947;48.834;9.132;2023-04-10T07:45:57;98693.38;;;13.09;47.99
15694;BME280;7947;48.834;9.132;2023-04-10T07:49:00;98684.44;;;13.24;45.86
15694;BME280;7947;48.834;9.132;2023-04-10T07:52:04;98689.22;;;13.37;45.73
15694;BME280;7947;48.834;9.132;2023-04-10T07:55:07;98694.19;;;13.58;46.64
15694;BME280;7947;48.834;9.132;2023-04-10T07:58:11;98693.78;;;13.75;45.71
15694;BME280;7947;48.834;9.132;2023-04-10T08:01:14;98682.94;;;13.80;45.49
15694;BME280;7947;48.834;9.132;2023-04-10T08:04:17;98687.19;;;13.91;44.14
15694;BME280;7947;48.834;9.132;2023-04-10T08:07:21;98686.63;;;13.94;43.65
15694;BME280;7947;48.834;9.132;2023-04-10T08:10:24;98686.22;;;14.11;42.68
15694;BME280;7947;48.834;9.132;2023-04-10T08:13:27;98683.69;;;14.19;43.70
15694;BME280;7947;48.834;9.132;2023-04-10T08:16:32;98676.66;;;14.23;43.55
15694;BME280;7947;48.834;9.132;2023-04-10T08:19:35;98679.09;;;14.54;44.39
15694;BME280;7947;48.834;9.132;2023-04-10T08:22:39;98677.16;;;14.54;41.75
15694;BME280;7947;48.834;9.132;2023-04-10T08:25:42;98671.47;;;14.56;42.94
15694;BME280;7947;48.834;9.132;2023-04-10T08:28:45;98668.56;;;14.52;42.36
15694;BME280;7947;48.834;9.132;2023-04-10T08:31:50;98668.94;;;14.40;42.15
15694;BME280;7947;48.834;9.132;2023-04-10T08:34:53;98671.41;;;14.37;42.24
15694;BME280;7947;48.834;9.132;2023-04-10T08:37:57;98667.59;;;14.43;42.96
15694;BME280;7947;48.834;9.132;2023-04-10T08:41:16;98663.13;;;14.57;43.21
15694;BME280;7947;48.834;9.132;2023-04-10T08:44:19;98656.72;;;14.72;41.60
15694;BME280;7947;48.834;9.132;2023-04-10T08:47:26;98659.81;;;14.84;41.23
15694;BME280;7947;48.834;9.132;2023-04-10T08:50:30;98658.44;;;14.86;41.84
15694;BME280;7947;48.834;9.132;2023-04-10T08:53:39;98658.81;;;14.98;42.85
15694;BME280;7947;48.834;9.132;2023-04-10T08:56:49;98651.31;;;15.14;42.65
15694;BME280;7947;48.834;9.132;2023-04-10T08:59:52;98647.72;;;15.42;43.19
15694;BME280;7947;48.834;9.132;2023-04-10T09:02:55;98649.66;;;15.55;39.78
15694;BME280;7947;48.834;9.132;2023-04-10T09:06:18;98645.13;;;15.32;40.79
15694;BME280;7947;48.834;9.132;2023-04-10T09:09:22;98646.66;;;15.57;41.28
15694;BME280;7947;48.834;9.132;2023-04-10T09:12:25;98639.75;;;15.83;42.16
15694;BME280;7947;48.834;9.132;2023-04-10T09:15:27;98644.78;;;15.89;41.52
15694;BME280;7947;48.834;9.132;2023-04-10T09:18:44;98644.47;;;16.23;41.12
15694;BME280;7947;48.834;9.132;2023-04-10T09:21:49;98637.50;;;16.49;40.79
15694;BME280;7947;48.834;9.132;2023-04-10T09:24:53;98632.69;;;16.73;39.58
15694;BME280;7947;48.834;9.132;2023-04-10T09:27:59;98629.59;;;16.80;39.40
15694;BME280;7947;48.834;9.132;2023-04-10T09:31:27;98624.88;;;16.72;38.86
15694;BME280;7947;48.834;9.132;2023-04-10T09:34:31;98614.09;;;16.94;38.94
15694;BME280;7947;48.834;9.132;2023-04-10T09:37:34;98609.94;;;17.10;39.33
15694;BME280;7947;48.834;9.132;2023-04-10T09:40:38;98609.50;;;17.30;37.68
15694;BME280;7947;48.834;9.132;2023-04-10T09:43:41;98594.25;;;17.56;37.11
15694;BME280;7947;48.834;9.132;2023-04-10T09:46:47;98602.22;;;17.75;36.59
15694;BME280;7947;48.834;9.132;2023-04-10T09:49:52;98586.31;;;17.90;34.25
15694;BME280;7947;48.834;9.132;2023-04-10T09:52:56;98587.31;;;17.94;33.84
15694;BME280;7947;48.834;9.132;2023-04-10T09:55:59;98575.84;;;17.97;35.19
15694;BME280;7947;48.834;9.132;2023-04-10T09:59:02;98578.88;;;17.96;35.49
15694;BME280;7947;48.834;9.132;2023-04-10T10:02:09;98574.34;;;18.14;33.70
15694;BME280;7947;48.834;9.132;2023-04-10T10:05:12;98565.78;;;18.29;31.72
15694;BME280;7947;48.834;9.132;2023-04-10T10:08:16;98569.75;;;18.31;33.53
15694;BME280;7947;48.834;9.132;2023-04-10T10:11:21;98560.25;;;18.42;32.07
15694;BME280;7947;48.834;9.132;2023-04-10T10:14:26;98558.81;;;18.45;32.25
15694;BME280;7947;48.834;9.132;2023-04-10T10:17:36;98546.84;;;18.54;31.73
15694;BME280;7947;48.834;9.132;2023-04-10T10:20:43;98541.28;;;18.68;31.33
15694;BME280;7947;48.834;9.132;2023-04-10T10:23:48;98538.44;;;18.73;32.34
15694;BME280;7947;48.834;9.132;2023-04-10T10:26:55;98528.06;;;18.75;31.14
15694;BME280;7947;48.834;9.132;2023-04-10T10:29:59;98521.66;;;18.88;31.59
15694;BME280;7947;48.834;9.132;2023-04-10T10:33:18;98503.91;;;18.82;34.53
15694;BME280;7947;48.834;9.132;2023-04-10T10:36:21;98510.63;;;18.84;32.04
15694;BME280;7947;48.834;9.132;2023-04-10T10:39:29;98501.81;;;18.62;32.37
15694;BME280;7947;48.834;9.132;2023-04-10T10:42:39;98514.94;;;18.60;33.23
15694;BME280;7947;48.834;9.132;2023-04-10T10:45:49;98496.69;;;18.60;32.39
15694;BME280;7947;48.834;9.132;2023-04-10T10:48:58;98477.84;;;18.72;32.43
15694;BME280;7947;48.834;9.132;2023-04-10T10:52:02;98489.53;;;18.73;30.93
15694;BME280;7947;48.834;9.132;2023-04-10T10:55:27;98485.22;;;18.80;32.65
15694;BME280;7947;48.834;9.132;2023-04-10T10:58:45;98470.34;;;18.86;32.14
15694;BME280;7947;48.834;9.132;2023-04-10T11:02:11;98477.38;;;18.87;32.39
15694;BME280;7947;48.834;9.132;2023-04-10T11:05:49;98471.78;;;18.67;28.93
15694;BME280;7947;48.834;9.132;2023-04-10T11:08:52;98478.34;;;18.83;29.76
15694;BME280;7947;48.834;9.132;2023-04-10T11:11:56;98467.47;;;19.00;28.76
15694;BME280;7947;48.834;9.132;2023-04-10T11:15:01;98470.94;;;19.26;28.56
15694;BME280;7947;48.834;9.132;2023-04-10T11:18:05;98455.94;;;19.37;27.79
15694;BME280;7947;48.834;9.132;2023-04-10T11:21:10;98455.28;;;19.49;28.48
15694;BME280;7947;48.834;9.132;2023-04-10T11:24:13;98448.97;;;19.57;27.21
15694;BME280;7947;48.834;9.132;2023-04-10T11:27:41;98455.06;;;19.62;27.77
15694;BME280;7947;48.834;9.132;2023-04-10T11:30:47;98446.03;;;19.70;27.71
15694;BME280;7947;48.834;9.132;2023-04-10T11:33:59;98447.38;;;19.64;25.87
15694;BME280;7947;48.834;9.132;2023-04-10T11:37:04;98443.50;;;19.74;26.89
15694;BME280;7947;48.834;9.132;2023-04-10T11:40:08;98446.63;;;19.85;28.84
15694;BME280;7947;48.834;9.132;2023-04-10T11:43:12;98454.91;;;19.97;26.77
15694;BME280;7947;48.834;9.132;2023-04-10T11:46:16;98454.91;;;19.97;26.38
15694;BME280;7947;48.834;9.132;2023-04-10T11:49:20;98448.66;;;19.96;27.01
15694;BME280;7947;48.834;9.132;2023-04-10T11:52:25;98447.13;;;20.24;26.57
15694;BME280;7947;48.834;9.132;2023-04-10T11:55:37;98429.47;;;20.30;26.34
15694;BME280;7947;48.834;9.132;2023-04-10T11:58:41;98427.22;;;20.32;25.76
15694;BME280;7947;48.834;9.132;2023-04-10T12:01:45;98415.84;;;20.51;27.80
15694;BME280;7947;48.834;9.132;2023-04-10T12:04:56;98406.47;;;20.60;26.74
15694;BME280;7947;48.834;9.132;2023-04-10T12:08:01;98393.69;;;20.73;25.35
15694;BME280;7947;48.834;9.132;2023-04-10T12:11:06;98380.22;;;20.77;25.40
15694;BME280;7947;48.834;9.132;2023-04-10T12:14:10;98390.38;;;20.67;28.39
15694;BME280;7947;48.834;9.132;2023-04-10T12:17:13;98390.31;;;20.76;23.87
15694;BME280;7947;48.834;9.132;2023-04-10T12:20:16;98379.47;;;20.88;22.92
15694;BME280;7947;48.834;9.132;2023-04-10T12:23:21;98381.81;;;21.10;26.41
15694;BME280;7947;48.834;9.132;2023-04-10T12:26:23;98379.78;;;20.87;24.28
15694;BME280;7947;48.834;9.132;2023-04-10T12:29:26;98372.19;;;20.92;23.90
15694;BME280;7947;48.834;9.132;2023-04-10T12:32:29;98375.59;;;20.89;23.57
15694;BME280;7947;48.834;9.132;2023-04-10T12:35:37;98365.09;;;20.79;23.15
15694;BME280;7947;48.834;9.132;2023-04-10T12:38:42;98364.69;;;20.89;24.43
15694;BME280;7947;48.834;9.132;2023-04-10T12:41:45;98359.94;;;20.98;22.95
15694;BME280;7947;48.834;9.132;2023-04-10T12:44:52;98359.22;;;20.89;24.01
15694;BME280;7947;48.834;9.132;2023-04-10T12:47:55;98355.75;;;20.68;25.40
15694;BME280;7947;48.834;9.132;2023-04-10T12:50:58;98342.16;;;20.47;24.20
15694;BME280;7947;48.834;9.132;2023-04-10T12:54:03;98334.59;;;20.32;23.59
15694;BME280;7947;48.834;9.132;2023-04-10T12:57:06;98341.06;;;20.19;24.81
15694;BME280;7947;48.834;9.132;2023-04-10T13:00:10;98331.22;;;20.06;24.72
15694;BME280;7947;48.834;9.132;2023-04-10T13:03:14;98319.13;;;19.95;24.00
15694;BME280;7947;48.834;9.132;2023-04-10T13:06:17;98323.34;;;19.84;25.16
15694;BME280;7947;48.834;9.132;2023-04-10T13:09:21;98327.22;;;19.83;26.26
15694;BME280;7947;48.834;9.132;2023-04-10T13:12:24;98316.91;;;19.89;24.92
15694;BME280;7947;48.834;9.132;2023-04-10T13:15:27;98313.00;;;19.98;22.88
15694;BME280;7947;48.834;9.132;2023-04-10T13:18:30;98306.97;;;20.13;25.23
15694;BME280;7947;48.834;9.132;2023-04-10T13:21:33;98303.25;;;19.97;25.05
15694;BME280;7947;48.834;9.132;2023-04-10T13:24:37;98299.59;;;20.14;26.07
15694;BME280;7947;48.834;9.132;2023-04-10T13:27:40;98297.22;;;20.12;26.23
15694;BME280;7947;48.834;9.132;2023-04-10T13:30:43;98311.31;;;19.94;22.63
15694;BME280;7947;48.834;9.132;2023-04-10T13:33:46;98300.41;;;19.94;24.33
15694;BME280;7947;48.834;9.132;2023-04-10T13:36:49;98301.47;;;20.01;24.80
15694;BME280;7947;48.834;9.132;2023-04-10T13:39:53;98284.16;;;19.76;26.42
15694;BME280;7947;48.834;9.132;2023-04-10T13:42:57;98289.69;;;19.68;26.43
15694;BME280;7947;48.834;9.132;2023-04-10T13:46:00;98285.06;;;19.89;22.53
15694;BME280;7947;48.834;9.132;2023-04-10T13:49:02;98282.84;;;19.83;23.40
15694;BME280;7947;48.834;9.132;2023-04-10T13:52:05;98277.22;;;19.88;25.62
15694;BME280;7947;48.834;9.132;2023-04-10T13:55:09;98276.50;;;19.99;23.61
15694;BME280;7947;48.834;9.132;2023-04-10T13:58:12;98270.31;;;19.90;24.67
15694;BME280;7947;48.834;9.132;2023-04-10T14:01:15;98255.50;;;19.79;25.99
15694;BME280;7947;48.834;9.132;2023-04-10T14:04:18;98266.50;;;19.62;24.62
15694;BME280;7947;48.834;9.132;2023-04-10T14:07:21;98270.69;;;19.59;24.24
15694;BME280;7947;48.834;9.132;2023-04-10T14:10:25;98262.38;;;19.56;24.53
15694;BME280;7947;48.834;9.132;2023-04-10T14:13:28;98259.06;;;19.50;26.73
15694;BME280;7947;48.834;9.132;2023-04-10T14:16:31;98243.84;;;19.49;26.38
15694;BME280;7947;48.834;9.132;2023-04-10T14:19:34;98235.84;;;19.53;26.42
15694;BME280;7947;48.834;9.132;2023-04-10T14:22:37;98226.88;;;19.52;28.23
15694;BME280;7947;48.834;9.132;2023-04-10T14:25:41;98224.50;;;19.51;27.53
15694;BME280;7947;48.834;9.132;2023-04-10T14:28:44;98236.50;;;19.50;27.52
15694;BME280;7947;48.834;9.132;2023-04-10T14:31:46;98222.38;;;19.56;24.95
15694;BME280;7947;48.834;9.132;2023-04-10T14:34:58;98214.88;;;19.53;26.59
15694;BME280;7947;48.834;9.132;2023-04-10T14:38:02;98227.34;;;19.54;26.80
15694;BME280;7947;48.834;9.132;2023-04-10T14:41:06;98218.25;;;19.50;26.37
15694;BME280;7947;48.834;9.132;2023-04-10T14:44:09;98219.53;;;19.53;28.17
15694;BME280;7947;48.834;9.132;2023-04-10T14:47:12;98214.59;;;19.46;26.01
15694;BME280;7947;48.834;9.132;2023-04-10T14:50:15;98212.75;;;19.59;26.99
15694;BME280;7947;48.834;9.132;2023-04-10T14:53:17;98220.19;;;19.70;28.56
15694;BME280;7947;48.834;9.132;2023-04-10T14:56:23;98207.19;;;19.76;27.53
15694;BME280;7947;48.834;9.132;2023-04-10T14:59:26;98211.84;;;19.75;28.64
15694;BME280;7947;48.834;9.132;2023-04-10T15:02:29;98202.94;;;19.87;27.70
15694;BME280;7947;48.834;9.132;2023-04-10T15:05:31;98194.25;;;19.94;26.82
15694;BME280;7947;48.834;9.132;2023-04-10T15:08:34;98194.56;;;19.92;26.59
15694;BME280;7947;48.834;9.132;2023-04-10T15:11:38;98186.59;;;19.87;26.95
15694;BME280;7947;48.834;9.132;2023-04-10T15:14:41;98177.97;;;19.85;27.76
15694;BME280;7947;48.834;9.132;2023-04-10T15:17:44;98175.06;;;19.69;26.35
15694;BME280;7947;48.834;9.132;2023-04-10T15:20:47;98176.47;;;19.75;28.97
15694;BME280;7947;48.834;9.132;2023-04-10T15:23:49;98175.47;;;19.59;28.00
15694;BME280;7947;48.834;9.132;2023-04-10T15:26:54;98162.31;;;19.41;28.18
15694;BME280;7947;48.834;9.132;2023-04-10T15:29:58;98161.41;;;19.28;26.02
15694;BME280;7947;48.834;9.132;2023-04-10T15:33:00;98150.41;;;19.25;28.17
15694;BME280;7947;48.834;9.132;2023-04-10T15:36:05;98151.53;;;19.24;29.38
15694;BME280;7947;48.834;9.132;2023-04-10T15:39:09;98150.78;;;19.15;28.54
15694;BME280;7947;48.834;9.132;2023-04-10T15:42:14;98142.09;;;19.01;27.68
15694;BME280;7947;48.834;9.132;2023-04-10T15:45:17;98143.91;;;18.88;28.52
15694;BME280;7947;48.834;9.132;2023-04-10T15:48:20;98146.16;;;18.86;27.53
15694;BME280;7947;48.834;9.132;2023-04-10T15:51:25;98137.72;;;18.79;27.58
15694;BME280;7947;48.834;9.132;2023-04-10T15:54:28;98129.28;;;18.72;29.08
15694;BME280;7947;48.834;9.132;2023-04-10T15:57:32;98129.75;;;18.74;27.47
15694;BME280;7947;48.834;9.132;2023-04-10T16:00:35;98128.53;;;18.63;29.50
15694;BME280;7947;48.834;9.132;2023-04-10T16:03:39;98129.31;;;18.63;27.91
15694;BME280;7947;48.834;9.132;2023-04-10T16:06:42;98124.25;;;18.53;29.92
15694;BME280;7947;48.834;9.132;2023-04-10T16:09:44;98117.75;;;18.46;29.40
15694;BME280;7947;48.834;9.132;2023-04-10T16:12:49;98115.66;;;18.43;30.99
15694;BME280;7947;48.834;9.132;2023-04-10T16:15:51;98113.56;;;18.40;29.36
15694;BME280;7947;48.834;9.132;2023-04-10T16:18:54;98108.16;;;18.31;29.10
15694;BME280;7947;48.834;9.132;2023-04-10T16:21:57;98111.53;;;18.28;30.46
15694;BME280;7947;48.834;9.132;2023-04-10T16:25:00;98114.41;;;18.32;30.67
15694;BME280;7947;48.834;9.132;2023-04-10T16:28:10;98112.69;;;18.27;30.48
15694;BME280;7947;48.834;9.132;2023-04-10T16:31:13;98107.88;;;18.24;29.85
15694;BME280;7947;48.834;9.132;2023-04-10T16:34:16;98101.34;;;18.25;31.10
15694;BME280;7947;48.834;9.132;2023-04-10T16:37:19;98099.09;;;18.27;30.36